Cundys Harbor, Maine
Current Conditions -  °F | °C
As of 4:19 PM on Wednesday 26 Nov 2014 (Local Time) from KIWI Reporting Station
Light Snow Light Snow  
Wind Chill: 28°   Ceiling: 800
Heat Index: 33°   Visibility: 1mi
Dew Point: 32°   Wind: 6mph
Humidity: 96%   Direction: NA
Pressure: 30.09"   Gusts: NA
Location:  43.903°N, 69.9809°W
Report Text: KIWI 262119Z AUTO VRB05KT 1SM -SN BR FEW004 OVC008 01/00 A3009 RMK AO2 P0004 T00060000
Loading
Personal Weather Stations






























Interactive Weather Map New forecast layout! Learn more

10-Day Weather Forecast

Advertisements
Track Severe Weather on mobile